Archival Weather

Joint Base Andrews

Camp Springs, Maryland (KADW)

Report from: Tuesday, February 27, 2024 3:12 PM EST
Current time: Wednesday, May 29, 2024 7:48 PM EDT

Current weather – Weather history – Daily summaries
Weather forecast

Present weatherLight drizzle
Temperature14.0°C (57.2°F)
Dew point10.0°C (50.0°F)
Winds 7 kts (3.6 m/s, 8.1 mph) South (180°)
Visibility10 mi. (16.1 km)
Clouds Ceiling: Broken clouds 4,300 ft. (1,311 m)
Overcast 5,000 ft. (1,524 m)
Altimeter29.81 in.Hg (1009 mB)
Precip. events Drizzle ended 7:54 PM
Drizzle began 8:12 PM
Relative humidity77 %
Density altitude159 ft. (48 m)
Sea-level pressure101.0 kPa (1010 mB, 29.83 in.Hg)
Remarks Fully automated report
System requires maintenance
Special weather observation
Automated weather observing station with precipitation discriminator
Flight conditions Visual Meteorological Conditions
Raw dataSPXX60 KWBC 272022 SPECI KADW 272012Z AUTO 18007KT 10SM -DZ BKN043 OVC050 14/10 A2981 RMK AO2 DZE1954DZB12 SLP102 $
An error has occurred. This application may no longer respond until reloaded. Reload 🗙